TimePDT,TemperatureF,Dew PointF,Humidity,Sea Level PressureIn,VisibilityMPH,Wind Direction,Wind SpeedMPH,Gust SpeedMPH,PrecipitationIn,Events,Conditions,WindDirDegrees,DateUTC
12:53 AM,24.1,10.9,57,30.30,10.0,Variable,5.8,-,N/A,,Scattered Clouds,0,2013-04-18 07:53:00
1:53 AM,23.0,12.0,63,30.29,10.0,Variable,4.6,-,N/A,,Mostly Cloudy,0,2013-04-18 08:53:00
2:53 AM,24.1,12.9,62,30.13,10.0,NW,3.5,-,N/A,,Overcast,320,2013-04-18 09:53:00
3:19 AM,24.8,12.2,59,30.18,10.0,Variable,3.5,-,N/A,,Overcast,0,2013-04-18 10:19:00
3:53 AM,24.1,12.0,60,30.13,10.0,WNW,3.5,-,N/A,,Overcast,300,2013-04-18 10:53:00
4:11 AM,23.0,12.2,63,30.18,10.0,WNW,3.5,-,N/A,,Overcast,300,2013-04-18 11:11:00
4:53 AM,24.1,12.9,62,30.27,10.0,Variable,3.5,-,N/A,,Overcast,0,2013-04-18 11:53:00
5:53 AM,24.1,12.9,62,30.29,10.0,Calm,Calm,-,N/A,,Overcast,0,2013-04-18 12:53:00
6:11 AM,24.8,14.0,64,30.19,10.0,Calm,Calm,-,N/A,,Overcast,0,2013-04-18 13:11:00
6:53 AM,25.0,12.9,60,30.30,10.0,South,4.6,-,N/A,,Overcast,170,2013-04-18 13:53:00
7:31 AM,26.6,14.0,59,30.20,10.0,Calm,Calm,-,N/A,,Mostly Cloudy,0,2013-04-18 14:31:00
7:53 AM,28.0,15.1,58,30.30,10.0,Variable,4.6,-,N/A,,Overcast,0,2013-04-18 14:53:00
8:53 AM,30.0,17.1,59,30.32,10.0,Variable,3.5,-,N/A,,Overcast,0,2013-04-18 15:53:00
9:14 AM,30.2,17.6,60,30.21,10.0,Variable,4.6,-,N/A,,Mostly Cloudy,0,2013-04-18 16:14:00
9:53 AM,30.9,18.0,59,30.32,10.0,Calm,Calm,-,N/A,,Mostly Cloudy,0,2013-04-18 16:53:00
10:27 AM,28.4,17.6,64,30.21,10.0,SW,4.6,-,N/A,,Scattered Clouds,220,2013-04-18 17:27:00
10:53 AM,30.0,19.0,64,30.33,10.0,Variable,4.6,-,N/A,,Mostly Cloudy,0,2013-04-18 17:53:00
11:53 AM,34.0,21.0,59,30.31,10.0,Variable,5.8,18.4,N/A,,Overcast,0,2013-04-18 18:53:00
12:53 PM,32.0,21.9,66,30.33,10.0,Variable,3.5,-,N/A,,Overcast,0,2013-04-18 19:53:00
1:53 PM,30.9,21.9,69,30.35,10.0,Variable,4.6,-,N/A,,Overcast,0,2013-04-18 20:53:00
2:53 PM,30.0,24.1,79,30.35,10.0,Variable,5.8,-,N/A,,Overcast,0,2013-04-18 21:53:00
3:15 PM,30.2,24.8,80,30.23,10.0,Variable,4.6,-,N/A,,Overcast,0,2013-04-18 22:15:00
3:53 PM,30.0,24.1,79,30.34,10.0,Variable,3.5,-,N/A,,Overcast,0,2013-04-18 22:53:00
4:53 PM,30.0,25.0,82,30.33,10.0,Variable,4.6,-,N/A,,Overcast,0,2013-04-18 23:53:00
5:53 PM,28.9,25.0,85,30.33,10.0,Variable,3.5,-,N/A,,Overcast,0,2013-04-19 00:53:00
6:53 PM,28.9,25.0,85,30.32,10.0,Calm,Calm,-,N/A,,Overcast,0,2013-04-19 01:53:00
7:53 PM,28.9,26.1,89,30.28,10.0,SSW,4.6,-,N/A,,Overcast,210,2013-04-19 02:53:00
8:43 PM,28.4,26.6,93,30.19,10.0,Calm,Calm,-,N/A,,Overcast,0,2013-04-19 03:43:00
8:53 PM,28.9,26.1,89,30.13,10.0,Variable,3.5,-,N/A,,Overcast,0,2013-04-19 03:53:00
9:44 PM,28.4,26.6,93,30.18,10.0,Calm,Calm,-,N/A,,Overcast,0,2013-04-19 04:44:00
9:53 PM,28.0,26.1,92,30.12,9.0,Calm,Calm,-,N/A,,Overcast,0,2013-04-19 04:53:00
10:25 PM,28.4,26.6,93,30.16,2.5,South,3.5,-,0.00,Snow,Light Snow,180,2013-04-19 05:25:00
10:41 PM,26.6,26.6,100,30.15,2.0,SSW,4.6,-,0.00,Snow,Light Snow,210,2013-04-19 05:41:00
10:49 PM,26.6,26.6,100,30.15,1.8,SW,5.8,-,0.00,Snow,Light Snow,220,2013-04-19 05:49:00
10:53 PM,28.0,27.0,96,30.24,2.0,Variable,3.5,-,0.00,Snow,Light Snow,0,2013-04-19 05:53:00
11:07 PM,28.4,26.6,93,30.14,3.0,Variable,4.6,-,0.00,Snow,Light Snow,0,2013-04-19 06:07:00
11:53 PM,28.0,27.0,96,30.05,7.0,SSW,6.9,-,0.00,,Overcast,210,2013-04-19 06:53:00